Arapahoe, Colorado
Current Conditions -  °F | °C
As of 2:53 AM on Thursday 23 Oct 2014 (Local Time) from KITR Reporting Station
Clear Clear  
Wind Chill: 38°   Ceiling: Unl
Heat Index: 42°   Visibility: 8mi
Dew Point: 38°   Wind: 7mph
Humidity: 85%   Direction: 270°W
Pressure: 30.12"   Gusts: NA
Location:  38.85°N, 102.18°W
Report Text: KITR 230853Z AUTO 27006KT 8SM CLR 06/03 A3012 RMK AO2 SLP170 T00560033 51001
Loading
Personal Weather Stations






























Interactive Weather Map New forecast layout! Learn more

10-Day Weather Forecast

Advertisements
Track Severe Weather on mobile